Time;durP1;ratioP1;P1;durP2;ratioP2;P2;SDS_P1;SDS_P2;PMS_P1;PMS_P2;Temp;Humidity;BMP_temperature;BMP_pressure;BME280_temperature;BME280_humidity;BME280_pressure;Samples;Min_cycle;Max_cycle;Signal;HPM_P1;HPM_P2
2021/07/12 00:02:08;;;;;;;9.20;8.40;;;;;;;19.74;72.54;101578.63;3596247;40;20239;-80
2021/07/12 00:04:33;;;;;;;9.60;8.80;;;;;;;19.71;72.70;101570.88;3587258;40;20224;-80
2021/07/12 00:06:58;;;;;;;10.83;9.73;;;;;;;19.67;72.80;101572.59;3587400;40;20228;-79
2021/07/12 00:09:24;;;;;;;9.23;8.43;;;;;;;19.66;72.85;101570.03;3596291;40;20279;-79
2021/07/12 00:11:49;;;;;;;9.83;8.93;;;;;;;19.63;72.57;101570.88;3596735;40;20537;-80
2021/07/12 00:14:15;;;;;;;9.40;8.70;;;;;;;19.59;72.68;101574.41;3595640;40;20228;-80
2021/07/12 00:16:40;;;;;;;8.87;8.17;;;;;;;19.56;72.58;101576.13;3597505;40;20811;-81
2021/07/12 00:19:05;;;;;;;8.13;7.50;;;;;;;19.52;72.51;101577.91;3597045;40;20237;-80
2021/07/12 00:21:30;;;;;;;8.73;8.00;;;;;;;19.50;72.55;101576.19;3597373;40;20256;-81
2021/07/12 00:23:56;;;;;;;9.67;8.87;;;;;;;19.47;72.57;101571.88;3597126;40;20611;-81
2021/07/12 00:26:22;;;;;;;8.70;8.00;;;;;;;19.46;72.79;101571.88;3596607;40;20229;-81
2021/07/12 00:28:47;;;;;;;9.07;8.37;;;;;;;19.44;72.48;101566.66;3596093;40;20229;-79
2021/07/12 00:31:12;;;;;;;9.77;8.93;;;;;;;19.42;72.79;101567.56;3596290;40;20241;-81
2021/07/12 00:33:39;;;;;;;11.10;10.10;;;;;;;19.38;72.69;101569.31;3596180;40;20237;-81
2021/07/12 00:36:05;;;;;;;10.53;9.60;;;;;;;19.39;72.21;101565.84;3596294;40;20298;-81
2021/07/12 00:38:31;;;;;;;9.80;8.93;;;;;;;19.42;72.41;101562.34;3596026;40;20243;-81
2021/07/12 00:40:56;;;;;;;8.35;7.50;;;;;;;19.39;72.92;101563.25;3596496;40;20209;-81
2021/07/12 00:43:22;;;;;;;8.27;7.63;;;;;;;19.40;72.10;101562.34;3596139;40;20220;-81
2021/07/12 00:45:47;;;;;;;9.33;8.53;;;;;;;19.37;72.28;101556.31;3596644;40;20236;-81
2021/07/12 00:48:13;;;;;;;8.13;7.47;;;;;;;19.36;72.36;101558.06;3596452;40;20523;-81
2021/07/12 00:50:42;;;;;;;8.17;7.43;;;;;;;19.34;72.44;101562.41;3595934;40;20245;-81
2021/07/12 00:53:09;;;;;;;8.83;8.13;;;;;;;19.30;72.47;101558.09;3586734;40;20249;-81
2021/07/12 00:55:43;;;;;;;10.07;9.13;;;;;;;19.28;72.58;101554.63;3595302;40;20225;-81
2021/07/12 00:58:11;;;;;;;10.20;9.20;;;;;;;19.26;72.37;101558.13;3586802;40;20252;-80
2021/07/12 01:00:38;;;;;;;7.40;6.73;;;;;;;19.29;72.42;101547.69;3596085;40;20240;-81
2021/07/12 01:03:03;;;;;;;8.33;7.63;;;;;;;19.30;72.56;101558.09;3586594;40;20257;-81
2021/07/12 01:05:31;;;;;;;8.87;8.17;;;;;;;19.29;72.35;101560.69;3596381;40;20245;-81
2021/07/12 01:07:57;;;;;;;8.80;8.10;;;;;;;19.27;72.31;101554.66;3586857;40;20240;-82
2021/07/12 01:10:23;;;;;;;6.70;6.10;;;;;;;19.28;72.20;101561.56;3596744;40;20344;-81
2021/07/12 01:13:12;;;;;;;10.00;9.17;;;;;;;19.24;72.36;101573.69;3596326;40;20249;-81
2021/07/12 01:15:53;;;;;;;7.20;6.43;;;;;;;19.25;71.92;101565.03;3586940;40;20686;-81
2021/07/12 01:18:23;;;;;;;8.43;7.73;;;;;;;19.22;71.76;101557.28;3596717;40;20228;-81
2021/07/12 01:21:37;;;;;;;9.10;8.30;;;;;;;19.15;72.35;101560.72;3584632;40;20519;-79
2021/07/12 01:24:17;;;;;;;8.77;7.97;;;;;;;19.11;72.18;101565.94;3579774;40;20698;-79
2021/07/12 01:27:10;;;;;;;7.13;6.53;;;;;;;19.08;72.20;101572.00;3594827;40;20620;-80
2021/07/12 01:30:16;;;;;;;7.27;6.17;;;;;;;19.04;72.10;101559.91;3594473;40;20685;-80
2021/07/12 01:32:58;;;;;;;8.23;7.53;;;;;;;19.01;72.45;101569.41;3595531;40;20240;-80
2021/07/12 01:35:31;;;;;;;8.60;7.90;;;;;;;18.96;72.51;101550.41;3595572;40;20236;-80
2021/07/12 01:37:59;;;;;;;9.57;8.77;;;;;;;18.93;72.53;101547.84;3596075;40;20582;-80
2021/07/12 01:40:42;;;;;;;9.27;8.47;;;;;;;18.91;72.51;101558.22;3586948;40;20689;-81
2021/07/12 01:43:26;;;;;;;8.45;7.75;;;;;;;18.90;72.64;101550.44;3596321;40;20240;-81
2021/07/12 01:45:59;;;;;;;9.20;8.40;;;;;;;18.89;72.70;101546.13;3596962;40;20265;-81
2021/07/12 01:48:33;;;;;;;9.68;8.25;;;;;;;18.86;72.72;101548.72;3598103;40;20235;-81
2021/07/12 01:51:01;;;;;;;7.93;7.23;;;;;;;18.80;73.04;101553.94;3594707;40;20234;-81
2021/07/12 01:53:47;;;;;;;8.30;7.60;;;;;;;18.73;73.06;101552.19;3587337;40;20319;-79
2021/07/12 01:56:34;;;;;;;7.47;6.77;;;;;;;18.65;73.06;101549.63;3596559;40;20357;-81
2021/07/12 01:59:13;;;;;;;6.33;5.83;;;;;;;18.59;73.08;101543.56;3596657;40;20451;-81
2021/07/12 02:01:40;;;;;;;6.07;5.53;;;;;;;18.50;73.19;101541.00;3597485;40;20260;-81
2021/07/12 02:04:06;;;;;;;9.17;8.33;;;;;;;18.41;73.48;101538.41;3597514;40;20253;-81
2021/07/12 02:06:38;;;;;;;5.77;5.27;;;;;;;18.36;73.64;101529.78;3587666;40;20300;-80
2021/07/12 02:09:05;;;;;;;6.60;6.00;;;;;;;18.30;73.67;101530.63;3597200;40;20489;-81
2021/07/12 02:11:32;;;;;;;6.15;5.65;;;;;;;18.28;74.15;101536.69;3588590;40;20307;-82
2021/07/12 02:13:57;;;;;;;6.27;5.73;;;;;;;18.26;74.04;101526.31;3598804;40;20241;-82
2021/07/12 02:16:25;;;;;;;8.83;7.30;;;;;;;18.23;73.92;101520.28;3595991;40;20220;-80
2021/07/12 02:18:52;;;;;;;7.70;7.10;;;;;;;18.19;73.72;101524.56;3596225;40;20257;-81
2021/07/12 02:21:18;;;;;;;7.50;6.80;;;;;;;18.13;73.89;101511.63;3585746;40;20510;-80
2021/07/12 02:23:45;;;;;;;9.80;8.87;;;;;;;18.12;74.19;101522.00;3594788;40;20218;-80
2021/07/12 02:26:12;;;;;;;6.23;5.63;;;;;;;18.13;74.19;101510.75;3594229;40;20603;-80
2021/07/12 02:28:44;;;;;;;9.63;8.80;;;;;;;18.10;74.74;101508.19;3593763;40;20233;-80
2021/07/12 02:31:12;;;;;;;9.47;8.50;;;;;;;18.08;74.08;101510.78;3594431;40;20234;-79
2021/07/12 02:33:39;;;;;;;9.00;8.10;;;;;;;18.07;74.54;101513.34;3594755;40;20240;-80
2021/07/12 02:36:05;;;;;;;7.80;7.20;;;;;;;18.06;74.38;101514.22;3594332;40;20269;-81
2021/07/12 02:38:32;;;;;;;8.63;7.93;;;;;;;18.02;74.32;101510.78;3594814;40;20233;-80
2021/07/12 02:40:57;;;;;;;9.43;8.57;;;;;;;17.96;74.44;101502.97;3593990;40;20740;-80
2021/07/12 02:43:23;;;;;;;8.80;8.00;;;;;;;17.89;74.46;101506.47;3594235;40;20217;-82
2021/07/12 02:45:51;;;;;;;7.27;6.67;;;;;;;17.84;74.40;101505.59;3595136;40;20221;-80
2021/07/12 02:48:16;;;;;;;8.57;7.53;;;;;;;17.77;74.55;101498.66;3585610;40;20217;-81
2021/07/12 02:50:42;;;;;;;8.13;7.43;;;;;;;17.76;74.38;101509.91;3585274;40;20237;-80
2021/07/12 02:53:15;;;;;;;7.83;7.13;;;;;;;17.71;74.29;101503.84;3594707;40;20259;-80
2021/07/12 02:55:41;;;;;;;10.23;9.23;;;;;;;17.67;74.46;101507.28;3595456;40;20240;-79
2021/07/12 02:58:07;;;;;;;8.53;7.83;;;;;;;17.66;74.57;101504.69;3585991;40;20229;-80
2021/07/12 03:00:32;;;;;;;7.93;7.17;;;;;;;17.63;74.55;101502.97;3594629;40;20229;-80
2021/07/12 03:02:57;;;;;;;7.50;6.80;;;;;;;17.60;74.50;101496.94;3594146;40;20248;-80
2021/07/12 03:05:23;;;;;;;12.07;8.80;;;;;;;17.56;74.65;101493.47;3594445;40;20486;-80
2021/07/12 03:08:12;;;;;;;7.30;5.63;;;;;;;17.60;74.71;101494.34;3594648;40;20244;-81
2021/07/12 03:10:56;;;;;;;8.30;7.50;;;;;;;17.55;74.89;101489.13;3585625;40;20225;-81
2021/07/12 03:13:34;;;;;;;5.87;5.37;;;;;;;17.56;75.04;101492.59;3594798;40;20253;-80
2021/07/12 03:16:00;;;;;;;5.27;4.87;;;;;;;17.56;75.06;101492.59;3595126;40;20233;-80
2021/07/12 03:18:31;;;;;;;7.37;6.67;;;;;;;17.57;74.97;101497.78;3590201;40;20213;-80
2021/07/12 03:21:01;;;;;;;5.47;5.07;;;;;;;17.56;74.85;101490.88;3594929;40;20237;-80
2021/07/12 03:23:32;;;;;;;4.97;4.57;;;;;;;17.56;74.92;101496.06;3595071;40;20224;-79
2021/07/12 03:26:00;;;;;;;4.27;3.97;;;;;;;17.54;74.96;101484.81;3594909;40;20225;-80
2021/07/12 03:28:26;;;;;;;5.73;5.23;;;;;;;17.55;75.26;101485.69;3585788;40;20226;-79
2021/07/12 03:30:52;;;;;;;5.10;4.60;;;;;;;17.58;75.15;101485.69;3586050;40;20242;-80
2021/07/12 03:33:20;;;;;;;7.03;6.43;;;;;;;17.60;75.18;101477.03;3585346;40;20241;-80
2021/07/12 03:35:48;;;;;;;5.50;5.10;;;;;;;17.64;75.08;101483.97;3595198;40;20495;-80
2021/07/12 03:38:16;;;;;;;7.90;7.17;;;;;;;17.66;75.24;101476.19;3595233;40;20240;-81
2021/07/12 03:40:42;;;;;;;4.93;4.53;;;;;;;17.69;75.04;101482.25;3594933;40;20881;-80
2021/07/12 03:43:09;;;;;;;6.57;5.97;;;;;;;17.68;75.42;101490.03;3595204;40;20240;-82
2021/07/12 03:45:35;;;;;;;7.43;6.83;;;;;;;17.69;75.02;101486.56;3594919;40;20237;-81
2021/07/12 03:48:00;;;;;;;7.00;6.40;;;;;;;17.66;74.87;101477.06;3595097;40;20261;-81
2021/07/12 03:50:28;;;;;;;7.57;6.97;;;;;;;17.65;75.09;101488.31;3594960;40;20228;-80
2021/07/12 03:52:54;;;;;;;9.00;8.20;;;;;;;17.64;75.15;101485.72;3584456;40;20249;-80
2021/07/12 03:55:23;;;;;;;8.10;7.40;;;;;;;17.65;75.23;101484.84;3594165;40;20543;-81
2021/07/12 03:57:50;;;;;;;7.80;7.10;;;;;;;17.67;75.20;101480.50;3594299;40;20245;-79
2021/07/12 04:00:18;;;;;;;8.80;8.00;;;;;;;17.67;75.04;101476.22;3593155;40;20642;-80
2021/07/12 04:02:44;;;;;;;9.03;8.23;;;;;;;17.71;75.37;101474.47;3587044;40;20830;-81
2021/07/12 04:05:10;;;;;;;8.77;7.97;;;;;;;17.74;75.43;101470.16;3583402;40;20210;-80
2021/07/12 04:07:37;;;;;;;9.63;8.67;;;;;;;17.75;75.39;101466.72;3583675;40;20229;-81
2021/07/12 04:10:11;;;;;;;9.33;8.53;;;;;;;17.78;75.43;101471.88;3583515;40;20237;-80
2021/07/12 04:12:38;;;;;;;7.50;6.80;;;;;;;17.84;75.46;101468.44;3574289;40;20253;-81
2021/07/12 04:15:05;;;;;;;8.30;7.57;;;;;;;17.89;75.23;101465.00;3574045;40;20488;-79
2021/07/12 04:17:30;;;;;;;7.80;7.20;;;;;;;17.95;75.16;101466.69;3575079;40;20280;-80
2021/07/12 04:19:56;;;;;;;6.07;5.53;;;;;;;18.02;75.32;101460.66;3572531;40;20499;-81
2021/07/12 04:22:22;;;;;;;9.43;8.63;;;;;;;18.10;74.97;101467.53;3583301;40;20249;-81
2021/07/12 04:24:47;;;;;;;8.03;7.33;;;;;;;18.19;75.00;101464.09;3583806;40;20214;-80
2021/07/12 04:27:13;;;;;;;9.77;8.87;;;;;;;18.25;74.78;101457.19;3583903;40;20627;-81
2021/07/12 04:29:38;;;;;;;9.37;8.57;;;;;;;18.31;74.74;101464.94;3583288;40;20226;-80
2021/07/12 04:32:04;;;;;;;7.90;7.20;;;;;;;18.39;74.84;101464.94;3582262;40;20246;-79
2021/07/12 04:34:29;;;;;;;8.20;7.47;;;;;;;18.46;74.57;101462.31;3573614;40;20234;-80
2021/07/12 04:36:55;;;;;;;9.30;8.40;;;;;;;18.56;74.54;101474.41;3575922;40;20234;-81
2021/07/12 04:39:21;;;;;;;9.07;8.20;;;;;;;18.63;74.22;101457.97;3591861;40;20232;-81
2021/07/12 04:41:46;;;;;;;8.33;7.63;;;;;;;18.71;74.24;101464.00;3592881;40;20248;-80
2021/07/12 04:44:11;;;;;;;9.43;8.63;;;;;;;18.79;73.83;101462.22;3593348;40;20233;-79
2021/07/12 04:46:37;;;;;;;8.53;7.83;;;;;;;18.88;73.72;101467.38;3593134;40;20228;-80
2021/07/12 04:49:03;;;;;;;10.43;9.53;;;;;;;18.97;73.56;101466.47;3593399;40;20225;-80
2021/07/12 04:51:30;;;;;;;7.67;7.07;;;;;;;19.07;72.73;101468.16;3593070;40;20257;-82
2021/07/12 04:53:55;;;;;;;8.00;7.35;;;;;;;19.15;72.33;101471.53;3593993;40;20221;-81
2021/07/12 04:56:20;;;;;;;11.00;9.87;;;;;;;19.21;72.52;101454.19;3593216;40;20217;-80
2021/07/12 04:58:47;;;;;;;8.37;7.67;;;;;;;19.29;72.45;101455.06;3592518;40;20233;-80
2021/07/12 05:01:13;;;;;;;7.73;7.13;;;;;;;19.36;72.43;101455.88;3593861;40;20248;-81
2021/07/12 05:03:38;;;;;;;8.73;7.93;;;;;;;19.43;72.27;101460.19;3593250;40;20237;-80
2021/07/12 05:06:04;;;;;;;9.07;7.97;;;;;;;19.50;72.63;101460.13;3594796;40;20225;-81
2021/07/12 05:08:29;;;;;;;8.40;7.60;;;;;;;19.56;71.33;101462.66;3594791;40;20221;-82
2021/07/12 05:10:56;;;;;;;8.83;8.00;;;;;;;19.65;71.79;101462.59;3585722;40;20244;-80
2021/07/12 05:13:22;;;;;;;9.53;8.63;;;;;;;19.71;71.49;101466.91;3594837;40;20233;-81
2021/07/12 05:15:47;;;;;;;10.53;9.53;;;;;;;19.80;70.59;101459.03;3595257;40;20278;-80
2021/07/12 05:18:13;;;;;;;9.87;8.97;;;;;;;19.90;70.06;101458.91;3594748;40;20218;-81
2021/07/12 05:20:38;;;;;;;9.50;8.60;;;;;;;19.95;69.50;101462.34;3595425;40;20221;-81
2021/07/12 05:23:04;;;;;;;8.73;7.97;;;;;;;19.99;69.78;101458.00;3594505;40;20241;-81
2021/07/12 05:25:29;;;;;;;8.13;6.83;;;;;;;20.05;69.16;101458.81;3595027;40;20233;-79
2021/07/12 05:27:54;;;;;;;9.87;9.07;;;;;;;20.13;69.58;101458.75;3585766;40;20255;-81
2021/07/12 05:30:20;;;;;;;7.33;6.67;;;;;;;20.19;69.40;101462.16;3594453;40;20597;-81
2021/07/12 05:32:46;;;;;;;7.90;7.17;;;;;;;20.26;69.23;101449.97;3594641;40;20241;-81
2021/07/12 05:35:11;;;;;;;8.43;7.53;;;;;;;20.34;68.95;101456.81;3594299;40;20237;-81
2021/07/12 05:37:37;;;;;;;7.67;7.07;;;;;;;20.44;69.24;101454.94;3594773;40;20248;-82
2021/07/12 05:40:05;;;;;;;8.23;7.23;;;;;;;20.52;68.53;101456.59;3594270;40;20225;-81
2021/07/12 05:42:30;;;;;;;10.07;9.13;;;;;;;20.59;68.35;101454.78;3594695;40;20249;-81
2021/07/12 05:44:56;;;;;;;7.80;6.90;;;;;;;20.64;67.67;101456.44;3594599;40;20279;-80
2021/07/12 05:47:21;;;;;;;9.20;8.30;;;;;;;20.70;67.47;101458.13;3594909;40;20864;-80
2021/07/12 05:49:46;;;;;;;10.17;9.27;;;;;;;20.77;67.13;101446.75;3594599;40;20237;-81
2021/07/12 05:52:12;;;;;;;10.13;9.13;;;;;;;20.86;67.83;101454.47;3594411;40;20248;-82
2021/07/12 05:54:38;;;;;;;9.87;8.93;;;;;;;20.95;67.02;101434.38;3594528;40;20232;-81
2021/07/12 05:57:03;;;;;;;9.60;8.60;;;;;;;21.05;66.70;101442.94;3594919;40;20229;-82
2021/07/12 05:59:29;;;;;;;9.37;8.27;;;;;;;21.13;66.21;101435.88;3594100;40;20233;-81
2021/07/12 06:01:54;;;;;;;9.90;8.83;;;;;;;21.22;66.03;101439.22;3594290;40;20245;-81
2021/07/12 06:04:19;;;;;;;9.73;8.73;;;;;;;21.33;65.40;101439.91;3594148;40;20279;-81
2021/07/12 06:06:45;;;;;;;8.33;7.63;;;;;;;21.42;65.95;101436.31;3594044;40;20220;-80
2021/07/12 06:09:10;;;;;;;11.53;9.27;;;;;;;21.52;65.34;101443.94;3595391;40;20225;-81
2021/07/12 06:11:35;;;;;;;8.70;8.00;;;;;;;21.59;65.19;101442.13;3585619;40;20252;-81
2021/07/12 06:14:01;;;;;;;10.33;9.03;;;;;;;21.65;64.68;101436.81;3594933;40;20229;-80
2021/07/12 06:16:26;;;;;;;8.17;7.37;;;;;;;21.68;65.09;101436.75;3595072;40;20221;-81
2021/07/12 06:18:51;;;;;;;9.50;8.63;;;;;;;21.81;63.80;101433.97;3595478;40;20225;-81
2021/07/12 06:21:17;;;;;;;9.80;8.87;;;;;;;21.89;64.11;101441.66;3593829;40;20247;-81
2021/07/12 06:23:42;;;;;;;10.50;9.60;;;;;;;21.92;63.73;101441.63;3594174;40;20269;-81
2021/07/12 06:26:08;;;;;;;9.03;8.23;;;;;;;21.94;64.39;101439.81;3594231;40;20830;-80
2021/07/12 06:28:33;;;;;;;9.20;8.40;;;;;;;22.04;64.50;101439.66;3594158;40;20217;-80
2021/07/12 06:30:58;;;;;;;7.47;6.88;;;;;;;22.13;64.25;101436.88;3585322;40;20233;-80
2021/07/12 06:33:27;;;;;;;9.17;8.33;;;;;;;22.33;63.39;101433.03;3594224;40;20236;-80
2021/07/12 06:35:52;;;;;;;10.13;9.23;;;;;;;22.37;63.20;101434.69;3585196;40;20639;-81
2021/07/12 06:38:18;;;;;;;9.13;8.33;;;;;;;22.43;63.95;101435.44;3593830;40;20252;-80
2021/07/12 06:40:43;;;;;;;8.40;7.70;;;;;;;22.56;64.18;101434.31;3594323;40;20226;-80
2021/07/12 06:43:08;;;;;;;10.40;8.80;;;;;;;22.69;63.23;101429.72;3594702;40;20256;-80
2021/07/12 06:45:33;;;;;;;8.60;7.90;;;;;;;22.79;62.54;101431.25;3595069;40;20225;-80
2021/07/12 06:47:59;;;;;;;8.80;8.10;;;;;;;22.96;62.31;101427.38;3594678;40;20380;-81
2021/07/12 06:50:25;;;;;;;9.43;8.63;;;;;;;23.06;62.07;101422.81;3594882;40;20256;-82
2021/07/12 06:52:50;;;;;;;10.27;8.20;;;;;;;23.16;62.27;101426.94;3593896;40;20240;-82
2021/07/12 06:55:15;;;;;;;8.80;8.00;;;;;;;23.26;61.28;101429.34;3594479;40;20342;-81
2021/07/12 06:57:40;;;;;;;9.65;8.68;;;;;;;23.40;59.93;101422.03;3594937;40;20495;-81
2021/07/12 07:00:07;;;;;;;10.32;9.35;;;;;;;23.48;60.18;101414.84;3585076;40;20233;-82
2021/07/12 07:02:35;;;;;;;9.02;8.13;;;;;;;23.57;60.91;101414.63;3594587;40;20520;-81
2021/07/12 07:05:00;;;;;;;10.27;9.20;;;;;;;23.69;61.04;101408.22;3594616;40;20233;-81
2021/07/12 07:07:25;;;;;;;10.00;8.35;;;;;;;23.79;60.54;101407.09;3594431;40;20611;-80
2021/07/12 07:09:50;;;;;;;9.95;9.05;;;;;;;23.83;60.24;101411.34;3594728;40;20346;-82
2021/07/12 07:12:16;;;;;;;8.35;7.72;;;;;;;23.98;59.56;101400.53;3594813;40;20253;-81
2021/07/12 07:14:41;;;;;;;9.25;8.35;;;;;;;24.06;60.11;101407.28;3594874;40;20244;-80
2021/07/12 07:17:06;;;;;;;8.70;8.00;;;;;;;24.28;58.96;101391.84;3595095;40;20599;-82
2021/07/12 07:19:31;;;;;;;9.88;8.88;;;;;;;24.35;59.25;101394.25;3594352;40;20228;-81
2021/07/12 07:21:57;;;;;;;8.35;7.63;;;;;;;24.45;58.82;101393.06;3594384;40;20247;-81
2021/07/12 07:24:22;;;;;;;9.10;8.38;;;;;;;24.50;58.21;101392.97;3595408;40;20228;-81
2021/07/12 07:26:48;;;;;;;8.73;8.02;;;;;;;24.60;58.31;101391.81;3585979;40;20232;-82
2021/07/12 07:29:15;;;;;;;8.88;8.07;;;;;;;24.74;58.33;101389.66;3594668;40;20228;-81
2021/07/12 07:31:40;;;;;;;9.35;8.55;;;;;;;24.93;57.38;101389.06;3594528;40;20244;-82
2021/07/12 07:34:06;;;;;;;9.63;8.73;;;;;;;24.88;57.49;101390.97;3594438;40;20248;-82
2021/07/12 07:36:31;;;;;;;9.23;8.43;;;;;;;24.95;57.39;101389.84;3594947;40;20232;-80
2021/07/12 07:38:56;;;;;;;8.27;7.50;;;;;;;24.99;56.59;101390.59;3594577;40;20261;-81
2021/07/12 07:41:23;;;;;;;8.55;7.85;;;;;;;25.08;56.09;101385.09;3585413;40;20579;-82
2021/07/12 07:43:48;;;;;;;9.20;8.32;;;;;;;25.22;56.23;101377.63;3595136;40;20225;-82
2021/07/12 07:46:13;;;;;;;8.38;7.57;;;;;;;25.28;56.60;101383.56;3594893;40;20232;-82
2021/07/12 07:48:39;;;;;;;8.25;7.57;;;;;;;25.42;55.52;101377.91;3594596;40;20287;-81
2021/07/12 07:51:04;;;;;;;7.70;7.03;;;;;;;25.55;56.24;101377.44;3594515;40;20229;-82
2021/07/12 07:53:29;;;;;;;9.82;9.02;;;;;;;25.70;55.34;101373.44;3594555;40;20806;-82
2021/07/12 07:55:54;;;;;;;9.23;8.52;;;;;;;25.77;54.95;101367.94;3594713;40;20232;-81
2021/07/12 07:58:20;;;;;;;8.63;7.93;;;;;;;25.87;54.07;101361.44;3594380;40;20232;-82
2021/07/12 08:00:45;;;;;;;8.93;8.02;;;;;;;25.96;54.94;101369.03;3594881;40;20495;-82
2021/07/12 08:03:10;;;;;;;8.48;7.68;;;;;;;26.03;54.75;101375.78;3595395;40;20235;-82
2021/07/12 08:05:36;;;;;;;8.52;7.82;;;;;;;26.09;53.82;101367.69;3595228;40;20790;-82
2021/07/12 08:08:01;;;;;;;8.02;7.43;;;;;;;26.15;53.68;101366.63;3586436;40;20456;-82
2021/07/12 08:10:27;;;;;;;7.43;6.90;;;;;;;26.25;53.40;101362.75;3595511;40;20229;-82
2021/07/12 08:12:52;;;;;;;8.55;7.78;;;;;;;26.37;52.47;101367.53;3586100;40;20247;-82
2021/07/12 08:15:19;;;;;;;8.05;7.43;;;;;;;26.40;52.75;101363.03;3595588;40;20240;-83
2021/07/12 08:17:47;;;;;;;7.75;7.05;;;;;;;26.54;52.12;101373.03;3595700;40;20241;-82
2021/07/12 08:20:13;;;;;;;7.50;6.78;;;;;;;26.63;52.43;101373.56;3596162;40;20232;-82
2021/07/12 08:22:40;;;;;;;8.07;7.35;;;;;;;26.75;52.78;101367.00;3594320;40;20228;-83
2021/07/12 08:25:07;;;;;;;8.18;7.40;;;;;;;26.89;52.21;101362.91;3594882;40;20240;-82
2021/07/12 08:27:34;;;;;;;7.78;7.07;;;;;;;27.03;51.36;101370.25;3595147;40;20505;-82
2021/07/12 08:29:59;;;;;;;8.48;7.78;;;;;;;27.07;50.42;101363.97;3594842;40;20253;-84
2021/07/12 08:32:25;;;;;;;7.65;7.05;;;;;;;27.20;51.50;101367.81;3594978;40;20615;-82
2021/07/12 08:34:51;;;;;;;7.63;7.13;;;;;;;27.24;51.25;101365.03;3595429;40;20592;-82
2021/07/12 08:37:17;;;;;;;8.63;7.90;;;;;;;27.26;50.25;101364.97;3595613;40;20871;-81
2021/07/12 08:39:42;;;;;;;8.37;7.73;;;;;;;27.04;50.90;101374.59;3595515;40;20248;-82
2021/07/12 08:42:11;;;;;;;9.25;7.90;;;;;;;27.20;51.54;101365.19;3597115;40;20244;-82
2021/07/12 08:44:36;;;;;;;7.40;6.80;;;;;;;27.29;49.79;101360.41;3596651;40;20228;-82
2021/07/12 08:47:01;;;;;;;7.75;7.05;;;;;;;27.37;49.09;101362.72;3596531;40;20233;-82
2021/07/12 08:49:27;;;;;;;8.07;7.38;;;;;;;27.33;50.09;101353.25;3595971;40;20224;-84
2021/07/12 08:51:52;;;;;;;7.55;6.95;;;;;;;27.52;51.43;101354.19;3596181;40;20229;-82
2021/07/12 08:54:18;;;;;;;8.45;7.72;;;;;;;27.62;47.84;101358.13;3596391;40;20240;-82
2021/07/12 08:56:43;;;;;;;8.00;7.20;;;;;;;27.55;48.99;101354.06;3596478;40;20630;-82
2021/07/12 08:59:29;;;;;;;8.50;7.70;;;;;;;27.57;49.51;101352.22;3596520;40;20217;-82
2021/07/12 09:02:09;;;;;;;8.38;7.60;;;;;;;27.65;48.70;101352.75;3586797;40;20251;-82
2021/07/12 09:04:39;;;;;;;8.55;7.80;;;;;;;27.71;48.16;101350.72;3596103;40;20240;-82
2021/07/12 09:07:08;;;;;;;8.50;7.55;;;;;;;27.57;48.23;101360.13;3596387;40;20303;-81
2021/07/12 09:09:34;;;;;;;6.95;6.28;;;;;;;27.82;48.80;101351.13;3596148;40;20225;-81
2021/07/12 09:12:18;;;;;;;7.65;7.05;;;;;;;27.89;47.72;101351.72;3586579;40;20247;-81
2021/07/12 09:15:09;;;;;;;7.80;7.07;;;;;;;27.82;47.21;101352.94;3595967;40;20259;-82
2021/07/12 09:17:40;;;;;;;6.90;6.30;;;;;;;27.97;47.41;101350.50;3595687;40;20746;-82
2021/07/12 09:20:08;;;;;;;7.63;6.93;;;;;;;28.03;47.73;101342.31;3595904;40;20233;-83
2021/07/12 09:22:39;;;;;;;7.75;7.22;;;;;;;28.18;47.79;101348.69;3595199;40;20240;-81
2021/07/12 09:25:10;;;;;;;7.07;6.50;;;;;;;28.35;47.67;101347.00;3595904;40;20233;-83
2021/07/12 09:27:38;;;;;;;8.05;7.28;;;;;;;28.23;46.38;101341.44;3594953;40;20256;-82
2021/07/12 09:30:21;;;;;;;7.10;6.60;;;;;;;28.39;47.02;101337.16;3594933;40;20236;-81
2021/07/12 09:32:47;;;;;;;8.23;7.50;;;;;;;28.35;47.01;101331.19;3595196;40;20265;-81
2021/07/12 09:35:19;;;;;;;6.57;6.07;;;;;;;28.56;47.26;101332.84;3595188;40;20244;-81
2021/07/12 09:37:48;;;;;;;8.23;6.68;;;;;;;28.77;46.58;101334.47;3595263;40;20229;-81
2021/07/12 09:40:16;;;;;;;7.32;6.70;;;;;;;28.98;45.24;101328.22;3586359;40;20233;-82
2021/07/12 09:42:46;;;;;;;7.20;6.60;;;;;;;29.08;45.53;101323.31;3594902;40;20293;-82
2021/07/12 09:45:14;;;;;;;6.40;5.80;;;;;;;29.18;44.97;101322.81;3586797;40;20245;-82
2021/07/12 09:47:44;;;;;;;7.05;6.45;;;;;;;29.30;44.89;101321.34;3596134;40;20244;-81
2021/07/12 09:50:13;;;;;;;7.03;6.43;;;;;;;29.30;44.77;101316.06;3595458;40;20241;-81
2021/07/12 09:52:53;;;;;;;6.70;6.03;;;;;;;29.34;44.98;101312.34;3594822;40;20237;-82
2021/07/12 09:55:24;;;;;;;7.15;6.47;;;;;;;29.34;43.60;101310.53;3595143;40;20220;-82
2021/07/12 09:58:13;;;;;;;6.53;6.03;;;;;;;29.41;44.70;101303.16;3595290;40;20236;-82
2021/07/12 10:00:49;;;;;;;7.25;6.75;;;;;;;29.46;44.49;101303.78;3595225;40;20221;-81
2021/07/12 10:03:19;;;;;;;7.75;7.05;;;;;;;29.35;44.89;101308.75;3585815;40;20240;-81
2021/07/12 10:05:46;;;;;;;6.72;6.22;;;;;;;29.48;44.04;101300.13;3595468;40;20240;-82
2021/07/12 10:08:12;;;;;;;6.72;6.10;;;;;;;29.62;44.80;101292.38;3595228;40;20249;-82
2021/07/12 10:10:37;;;;;;;7.07;6.38;;;;;;;29.80;44.12;101296.69;3595079;40;20303;-82
2021/07/12 10:13:04;;;;;;;7.07;6.57;;;;;;;29.83;42.92;101291.25;3586881;40;20261;-82
2021/07/12 10:15:29;;;;;;;6.93;6.32;;;;;;;29.47;43.89;101297.59;3593794;40;20283;-82
2021/07/12 10:17:57;;;;;;;6.95;6.32;;;;;;;29.30;45.82;101287.03;3593722;40;20221;-83
2021/07/12 10:20:24;;;;;;;7.57;6.80;;;;;;;29.18;44.59;101285.84;3594910;40;20511;-82
2021/07/12 10:22:49;;;;;;;6.18;5.68;;;;;;;29.04;45.14;101285.69;3585938;40;20224;-83
2021/07/12 10:25:18;;;;;;;7.00;6.50;;;;;;;28.99;44.44;101284.19;3592268;40;20258;-82
2021/07/12 10:27:56;;;;;;;6.28;5.78;;;;;;;29.03;45.03;101270.78;3584664;40;20229;-81
2021/07/12 10:30:40;;;;;;;6.90;6.30;;;;;;;28.93;44.61;101272.13;3584956;40;20607;-81
2021/07/12 10:33:08;;;;;;;7.05;6.43;;;;;;;29.01;44.55;101267.34;3585473;40;20245;-82
2021/07/12 10:35:47;;;;;;;6.45;6.03;;;;;;;28.99;44.22;101261.31;3585195;40;20517;-81
2021/07/12 10:38:24;;;;;;;6.43;5.93;;;;;;;28.97;44.43;101251.72;3585150;40;20267;-82
2021/07/12 10:40:52;;;;;;;6.72;6.00;;;;;;;29.15;44.39;101250.84;3585335;40;20315;-82
2021/07/12 10:43:32;;;;;;;6.30;5.80;;;;;;;29.19;43.76;101257.69;3585766;40;20249;-83
2021/07/12 10:45:57;;;;;;;6.88;6.28;;;;;;;29.27;44.72;101248.44;3575588;40;20226;-82
2021/07/12 10:48:32;;;;;;;6.80;6.20;;;;;;;29.47;43.43;101257.97;3576344;40;20229;-82
2021/07/12 10:50:57;;;;;;;5.35;5.00;;;;;;;29.75;43.62;101247.72;3584870;40;20229;-82
2021/07/12 10:53:23;;;;;;;6.72;6.22;;;;;;;29.79;43.21;101246.63;3575981;40;20249;-82
2021/07/12 10:55:57;;;;;;;5.90;5.40;;;;;;;30.13;44.00;101243.88;3585862;40;20814;-82
2021/07/12 10:58:29;;;;;;;6.45;5.85;;;;;;;30.25;42.80;101242.34;3585484;40;20548;-81
2021/07/12 11:00:58;;;;;;;6.18;5.65;;;;;;;30.25;43.12;101245.00;3585061;40;20644;-82
2021/07/12 11:03:50;;;;;;;6.00;5.47;;;;;;;30.33;42.83;101234.84;3584641;40;20328;-81
2021/07/12 11:06:17;;;;;;;5.20;4.80;;;;;;;30.35;41.40;101233.84;3585315;40;20233;-82
2021/07/12 11:08:46;;;;;;;5.72;5.32;;;;;;;30.20;41.41;101237.28;3584214;40;20237;-82
2021/07/12 11:11:39;;;;;;;5.50;5.10;;;;;;;30.25;41.87;101226.50;3585119;40;20227;-82
2021/07/12 11:14:07;;;;;;;4.90;4.53;;;;;;;30.35;41.39;101223.25;3579886;40;20241;-82
2021/07/12 11:16:40;;;;;;;5.15;4.13;;;;;;;30.28;40.82;101213.94;3585464;40;20242;-82
2021/07/12 11:19:28;;;;;;;4.70;4.40;;;;;;;30.32;41.44;101212.84;3585261;40;20270;-82
2021/07/12 11:22:14;;;;;;;5.03;4.63;;;;;;;30.63;41.29;101207.53;3584780;40;20265;-80
2021/07/12 11:25:08;;;;;;;5.32;4.93;;;;;;;30.71;40.66;101209.75;3584924;40;20222;-81
2021/07/12 11:27:44;;;;;;;5.40;4.90;;;;;;;30.69;40.16;101208.97;3585008;40;20612;-83
2021/07/12 11:30:29;;;;;;;4.72;4.38;;;;;;;30.88;39.52;101204.34;3584803;40;20230;-82
2021/07/12 11:32:55;;;;;;;4.80;4.50;;;;;;;30.91;38.89;101202.38;3584987;40;20241;-81